sensor_id;sensor_type;location;lat;lon;timestamp;pressure;altitude;pressure_sealevel;temperature;humidity
34081;BME280;20358;50.272;19.026;2023-11-21T00:02:58;97389.13;;;11.61;70.22
34081;BME280;20358;50.272;19.026;2023-11-21T00:06:10;97386.00;;;11.56;70.48
34081;BME280;20358;50.272;19.026;2023-11-21T00:09:18;97388.50;;;11.57;70.54
34081;BME280;20358;50.272;19.026;2023-11-21T00:12:28;97398.38;;;11.54;70.35
34081;BME280;20358;50.272;19.026;2023-11-21T00:15:37;97398.13;;;11.44;70.40
34081;BME280;20358;50.272;19.026;2023-11-21T00:18:47;97393.94;;;11.29;70.46
34081;BME280;20358;50.272;19.026;2023-11-21T00:21:54;97393.13;;;11.41;70.68
34081;BME280;20358;50.272;19.026;2023-11-21T00:25:05;97407.66;;;11.45;70.70
34081;BME280;20358;50.272;19.026;2023-11-21T00:28:16;97411.53;;;11.52;70.74
34081;BME280;20358;50.272;19.026;2023-11-21T00:31:24;97411.34;;;11.55;70.65
34081;BME280;20358;50.272;19.026;2023-11-21T00:34:32;97400.34;;;11.50;70.74
34081;BME280;20358;50.272;19.026;2023-11-21T00:37:44;97405.88;;;11.58;70.76
34081;BME280;20358;50.272;19.026;2023-11-21T00:40:54;97413.41;;;11.63;71.04
34081;BME280;20358;50.272;19.026;2023-11-21T00:44:07;97408.81;;;11.66;71.05
34081;BME280;20358;50.272;19.026;2023-11-21T00:47:18;97407.50;;;11.73;70.93
34081;BME280;20358;50.272;19.026;2023-11-21T00:50:30;97407.06;;;11.79;71.17
34081;BME280;20358;50.272;19.026;2023-11-21T00:53:41;97404.84;;;11.86;70.90
34081;BME280;20358;50.272;19.026;2023-11-21T00:56:51;97400.66;;;11.96;70.80
34081;BME280;20358;50.272;19.026;2023-11-21T01:00:02;97400.06;;;11.93;70.77
34081;BME280;20358;50.272;19.026;2023-11-21T01:03:21;97400.47;;;11.87;71.09
34081;BME280;20358;50.272;19.026;2023-11-21T01:06:33;97391.03;;;11.84;71.54
34081;BME280;20358;50.272;19.026;2023-11-21T01:09:42;97399.19;;;11.92;71.36
34081;BME280;20358;50.272;19.026;2023-11-21T01:12:56;97400.13;;;11.91;71.18
34081;BME280;20358;50.272;19.026;2023-11-21T01:16:20;97397.75;;;11.75;71.31
34081;BME280;20358;50.272;19.026;2023-11-21T01:19:35;97406.75;;;11.71;70.80
34081;BME280;20358;50.272;19.026;2023-11-21T01:22:44;97396.59;;;11.67;70.71
34081;BME280;20358;50.272;19.026;2023-11-21T01:25:52;97384.75;;;11.61;70.32
34081;BME280;20358;50.272;19.026;2023-11-21T01:29:06;97401.06;;;11.52;70.97
34081;BME280;20358;50.272;19.026;2023-11-21T01:32:16;97403.59;;;11.54;71.04
34081;BME280;20358;50.272;19.026;2023-11-21T01:35:33;97401.06;;;11.52;71.25
34081;BME280;20358;50.272;19.026;2023-11-21T01:38:43;97409.88;;;11.51;70.82
34081;BME280;20358;50.272;19.026;2023-11-21T01:42:11;97412.69;;;11.48;70.00
34081;BME280;20358;50.272;19.026;2023-11-21T01:45:22;97410.09;;;11.48;70.01
34081;BME280;20358;50.272;19.026;2023-11-21T01:48:42;97409.88;;;11.64;69.72
34081;BME280;20358;50.272;19.026;2023-11-21T01:51:54;97411.28;;;11.69;69.28
34081;BME280;20358;50.272;19.026;2023-11-21T01:55:24;97414.91;;;11.67;69.25
34081;BME280;20358;50.272;19.026;2023-11-21T01:59:00;97421.63;;;11.71;69.55
34081;BME280;20358;50.272;19.026;2023-11-21T02:02:28;97417.63;;;11.65;69.58
34081;BME280;20358;50.272;19.026;2023-11-21T02:05:59;97419.63;;;11.62;69.62
34081;BME280;20358;50.272;19.026;2023-11-21T02:09:14;97416.16;;;11.61;69.95
34081;BME280;20358;50.272;19.026;2023-11-21T02:12:25;97416.16;;;11.61;70.14
34081;BME280;20358;50.272;19.026;2023-11-21T02:15:38;97414.28;;;11.63;70.30
34081;BME280;20358;50.272;19.026;2023-11-21T02:18:54;97420.34;;;11.51;70.52
34081;BME280;20358;50.272;19.026;2023-11-21T02:22:11;97415.00;;;11.40;70.76
34081;BME280;20358;50.272;19.026;2023-11-21T02:25:29;97422.00;;;11.52;71.11
34081;BME280;20358;50.272;19.026;2023-11-21T02:28:43;97419.06;;;11.44;70.84
34081;BME280;20358;50.272;19.026;2023-11-21T02:31:56;97422.50;;;11.32;70.76
34081;BME280;20358;50.272;19.026;2023-11-21T02:35:06;97428.03;;;11.15;71.29
34081;BME280;20358;50.272;19.026;2023-11-21T02:38:21;97429.88;;;11.13;71.60
34081;BME280;20358;50.272;19.026;2023-11-21T02:41:37;97414.59;;;10.94;71.82
34081;BME280;20358;50.272;19.026;2023-11-21T02:44:49;97432.28;;;11.03;71.68
34081;BME280;20358;50.272;19.026;2023-11-21T02:48:09;97425.47;;;11.01;71.82
34081;BME280;20358;50.272;19.026;2023-11-21T02:51:18;97430.13;;;11.10;71.93
34081;BME280;20358;50.272;19.026;2023-11-21T02:54:25;97426.75;;;11.08;71.90
34081;BME280;20358;50.272;19.026;2023-11-21T02:57:36;97432.31;;;11.16;71.69
34081;BME280;20358;50.272;19.026;2023-11-21T03:00:44;97434.72;;;11.19;71.72
34081;BME280;20358;50.272;19.026;2023-11-21T03:03:55;97434.53;;;11.22;71.54
34081;BME280;20358;50.272;19.026;2023-11-21T03:07:08;97449.34;;;11.09;71.36
34081;BME280;20358;50.272;19.026;2023-11-21T03:10:17;97448.09;;;11.02;71.49
34081;BME280;20358;50.272;19.026;2023-11-21T03:13:37;97442.44;;;11.08;71.78
34081;BME280;20358;50.272;19.026;2023-11-21T03:16:48;97433.53;;;11.10;71.66
34081;BME280;20358;50.272;19.026;2023-11-21T03:19:57;97443.72;;;11.15;71.53
34081;BME280;20358;50.272;19.026;2023-11-21T03:23:06;97436.38;;;11.07;71.42
34081;BME280;20358;50.272;19.026;2023-11-21T03:26:13;97441.34;;;11.25;71.46
34081;BME280;20358;50.272;19.026;2023-11-21T03:29:24;97449.84;;;11.28;70.89
34081;BME280;20358;50.272;19.026;2023-11-21T03:32:33;97453.19;;;11.30;71.02
34081;BME280;20358;50.272;19.026;2023-11-21T03:35:42;97459.88;;;11.34;70.81
34081;BME280;20358;50.272;19.026;2023-11-21T03:38:49;97462.63;;;11.45;70.63
34081;BME280;20358;50.272;19.026;2023-11-21T03:41:58;97467.84;;;11.45;70.42
34081;BME280;20358;50.272;19.026;2023-11-21T03:45:09;97463.34;;;11.47;70.21
34081;BME280;20358;50.272;19.026;2023-11-21T03:48:22;97464.50;;;11.43;70.20
34081;BME280;20358;50.272;19.026;2023-11-21T03:51:35;97454.03;;;11.43;70.61
34081;BME280;20358;50.272;19.026;2023-11-21T03:54:46;97447.94;;;11.30;70.64
34081;BME280;20358;50.272;19.026;2023-11-21T03:57:57;97463.84;;;11.27;70.91
34081;BME280;20358;50.272;19.026;2023-11-21T04:01:11;97467.31;;;11.28;71.35
34081;BME280;20358;50.272;19.026;2023-11-21T04:04:20;97459.19;;;11.18;71.53
34081;BME280;20358;50.272;19.026;2023-11-21T04:07:34;97462.38;;;11.23;71.53
34081;BME280;20358;50.272;19.026;2023-11-21T04:10:47;97466.50;;;11.13;71.97
34081;BME280;20358;50.272;19.026;2023-11-21T04:14:03;97466.75;;;11.10;72.07
34081;BME280;20358;50.272;19.026;2023-11-21T04:17:18;97466.50;;;11.13;72.25
34081;BME280;20358;50.272;19.026;2023-11-21T04:20:31;97471.53;;;11.16;72.32
34081;BME280;20358;50.272;19.026;2023-11-21T04:23:41;97464.84;;;11.12;72.17
34081;BME280;20358;50.272;19.026;2023-11-21T04:26:54;97470.16;;;11.10;72.12
34081;BME280;20358;50.272;19.026;2023-11-21T04:30:14;97469.88;;;11.15;72.16
34081;BME280;20358;50.272;19.026;2023-11-21T04:33:28;97464.69;;;11.01;72.38
34081;BME280;20358;50.272;19.026;2023-11-21T04:36:42;97478.63;;;11.01;72.39
34081;BME280;20358;50.272;19.026;2023-11-21T04:39:55;97483.22;;;10.98;72.64
34081;BME280;20358;50.272;19.026;2023-11-21T04:43:05;97478.31;;;11.06;72.65
34081;BME280;20358;50.272;19.026;2023-11-21T04:46:21;97477.34;;;10.94;72.96
34081;BME280;20358;50.272;19.026;2023-11-21T04:49:35;97490.97;;;10.99;73.62
34081;BME280;20358;50.272;19.026;2023-11-21T04:52:44;97485.09;;;10.96;73.41
34081;BME280;20358;50.272;19.026;2023-11-21T04:55:53;97481.19;;;10.89;73.81
34081;BME280;20358;50.272;19.026;2023-11-21T04:59:04;97481.91;;;11.05;73.92
34081;BME280;20358;50.272;19.026;2023-11-21T05:02:13;97483.13;;;10.99;73.76
34081;BME280;20358;50.272;19.026;2023-11-21T05:05:41;97491.59;;;11.03;73.60
34081;BME280;20358;50.272;19.026;2023-11-21T05:08:49;97494.56;;;11.11;73.96
34081;BME280;20358;50.272;19.026;2023-11-21T05:12:05;97487.66;;;11.10;73.40
34081;BME280;20358;50.272;19.026;2023-11-21T05:15:16;97492.41;;;11.17;73.24
34081;BME280;20358;50.272;19.026;2023-11-21T05:18:31;97496.16;;;11.26;73.30
34081;BME280;20358;50.272;19.026;2023-11-21T05:22:03;97489.81;;;11.30;72.86
34081;BME280;20358;50.272;19.026;2023-11-21T05:25:13;97498.69;;;11.28;72.66
34081;BME280;20358;50.272;19.026;2023-11-21T05:28:22;97507.59;;;11.25;72.71
34081;BME280;20358;50.272;19.026;2023-11-21T05:31:31;97503.75;;;11.31;72.91
34081;BME280;20358;50.272;19.026;2023-11-21T05:34:44;97506.63;;;11.26;72.60
34081;BME280;20358;50.272;19.026;2023-11-21T05:37:59;97513.75;;;11.24;72.54
34081;BME280;20358;50.272;19.026;2023-11-21T05:41:16;97511.59;;;11.31;72.71
34081;BME280;20358;50.272;19.026;2023-11-21T05:44:37;97514.09;;;11.32;72.48
34081;BME280;20358;50.272;19.026;2023-11-21T05:48:07;97524.91;;;11.40;72.27
34081;BME280;20358;50.272;19.026;2023-11-21T05:51:18;97518.94;;;11.38;72.17
34081;BME280;20358;50.272;19.026;2023-11-21T05:54:32;97528.06;;;11.45;72.46
34081;BME280;20358;50.272;19.026;2023-11-21T05:57:43;97525.81;;;11.39;72.40
34081;BME280;20358;50.272;19.026;2023-11-21T06:00:52;97529.28;;;11.40;72.74
34081;BME280;20358;50.272;19.026;2023-11-21T06:04:00;97533.97;;;11.35;72.23
34081;BME280;20358;50.272;19.026;2023-11-21T06:07:08;97533.34;;;11.31;72.84
34081;BME280;20358;50.272;19.026;2023-11-21T06:10:20;97544.25;;;11.38;72.36
34081;BME280;20358;50.272;19.026;2023-11-21T06:13:28;97551.41;;;11.48;72.73
34081;BME280;20358;50.272;19.026;2023-11-21T06:16:37;97550.16;;;11.54;72.58
34081;BME280;20358;50.272;19.026;2023-11-21T06:19:48;97551.75;;;11.56;72.38
34081;BME280;20358;50.272;19.026;2023-11-21T06:22:58;97553.31;;;11.59;72.30
34081;BME280;20358;50.272;19.026;2023-11-21T06:26:10;97554.38;;;11.56;71.92
34081;BME280;20358;50.272;19.026;2023-11-21T06:29:18;97560.97;;;11.62;72.22
34081;BME280;20358;50.272;19.026;2023-11-21T06:32:26;97566.69;;;11.54;71.71
34081;BME280;20358;50.272;19.026;2023-11-21T06:35:34;97563.16;;;11.55;71.97
34081;BME280;20358;50.272;19.026;2023-11-21T06:38:40;97571.31;;;11.51;71.34
34081;BME280;20358;50.272;19.026;2023-11-21T06:41:52;97570.56;;;11.49;71.54
34081;BME280;20358;50.272;19.026;2023-11-21T06:44:59;97569.63;;;11.50;71.54
34081;BME280;20358;50.272;19.026;2023-11-21T06:48:09;97572.53;;;11.45;72.07
34081;BME280;20358;50.272;19.026;2023-11-21T06:51:16;97572.72;;;11.42;71.72
34081;BME280;20358;50.272;19.026;2023-11-21T06:54:26;97574.09;;;11.35;71.91
34081;BME280;20358;50.272;19.026;2023-11-21T06:57:37;97571.28;;;11.38;72.43
34081;BME280;20358;50.272;19.026;2023-11-21T07:00:48;97564.16;;;11.40;71.99
34081;BME280;20358;50.272;19.026;2023-11-21T07:03:59;97569.19;;;11.43;71.81
34081;BME280;20358;50.272;19.026;2023-11-21T07:07:07;97567.06;;;11.36;71.78
34081;BME280;20358;50.272;19.026;2023-11-21T07:10:16;97569.22;;;11.29;71.86
34081;BME280;20358;50.272;19.026;2023-11-21T07:13:29;97582.13;;;11.32;71.96
34081;BME280;20358;50.272;19.026;2023-11-21T07:16:37;97575.41;;;11.28;71.86
34081;BME280;20358;50.272;19.026;2023-11-21T07:19:46;97518.16;;;10.97;71.75
34081;BME280;20358;50.272;19.026;2023-11-21T07:22:58;97589.97;;;11.32;71.89
34081;BME280;20358;50.272;19.026;2023-11-21T07:26:18;97586.13;;;11.38;71.77
34081;BME280;20358;50.272;19.026;2023-11-21T07:29:28;97595.75;;;11.37;71.44
34081;BME280;20358;50.272;19.026;2023-11-21T07:32:41;97596.34;;;11.28;71.14
34081;BME280;20358;50.272;19.026;2023-11-21T07:35:52;97599.25;;;11.23;71.19
34081;BME280;20358;50.272;19.026;2023-11-21T07:39:00;97594.34;;;11.32;71.55
34081;BME280;20358;50.272;19.026;2023-11-21T07:42:10;97592.59;;;11.32;70.98
34081;BME280;20358;50.272;19.026;2023-11-21T07:45:25;97586.97;;;11.38;70.82
34081;BME280;20358;50.272;19.026;2023-11-21T07:48:35;97596.41;;;11.41;70.72
34081;BME280;20358;50.272;19.026;2023-11-21T07:51:46;97604.13;;;11.42;70.25
34081;BME280;20358;50.272;19.026;2023-11-21T07:54:56;97593.25;;;11.36;70.34
34081;BME280;20358;50.272;19.026;2023-11-21T07:58:07;97600.28;;;11.21;70.81
34081;BME280;20358;50.272;19.026;2023-11-21T08:01:22;97591.50;;;11.22;70.70
34081;BME280;20358;50.272;19.026;2023-11-21T08:04:58;97588.34;;;11.17;70.95
34081;BME280;20358;50.272;19.026;2023-11-21T08:08:09;97594.97;;;11.08;70.69
34081;BME280;20358;50.272;19.026;2023-11-21T08:11:17;97602.94;;;11.07;70.76
34081;BME280;20358;50.272;19.026;2023-11-21T08:14:26;97606.94;;;11.12;71.03
34081;BME280;20358;50.272;19.026;2023-11-21T08:17:40;97601.59;;;11.14;70.77
34081;BME280;20358;50.272;19.026;2023-11-21T08:20:52;97605.94;;;11.01;69.98
34081;BME280;20358;50.272;19.026;2023-11-21T08:24:06;97612.09;;;11.00;70.72
34081;BME280;20358;50.272;19.026;2023-11-21T08:27:15;97621.78;;;11.12;70.66
34081;BME280;20358;50.272;19.026;2023-11-21T08:30:24;97625.69;;;11.19;69.68
34081;BME280;20358;50.272;19.026;2023-11-21T08:33:40;97615.78;;;11.24;69.99
34081;BME280;20358;50.272;19.026;2023-11-21T08:36:48;97612.28;;;11.38;69.95
34081;BME280;20358;50.272;19.026;2023-11-21T08:40:01;97630.13;;;11.45;69.20
34081;BME280;20358;50.272;19.026;2023-11-21T08:43:16;97624.88;;;11.45;69.31
34081;BME280;20358;50.272;19.026;2023-11-21T08:46:24;97635.16;;;11.48;68.94
34081;BME280;20358;50.272;19.026;2023-11-21T08:49:35;97635.34;;;11.45;68.92
34081;BME280;20358;50.272;19.026;2023-11-21T08:52:51;97642.75;;;11.39;69.10
34081;BME280;20358;50.272;19.026;2023-11-21T08:56:13;97636.78;;;11.37;69.21
34081;BME280;20358;50.272;19.026;2023-11-21T08:59:24;97639.69;;;11.32;68.52
34081;BME280;20358;50.272;19.026;2023-11-21T09:02:32;97642.81;;;11.51;69.16
34081;BME280;20358;50.272;19.026;2023-11-21T09:05:44;97644.59;;;11.51;68.94
34081;BME280;20358;50.272;19.026;2023-11-21T09:08:52;97647.63;;;11.71;69.01
34081;BME280;20358;50.272;19.026;2023-11-21T09:12:05;97640.88;;;11.81;68.67
34081;BME280;20358;50.272;19.026;2023-11-21T09:15:39;97642.47;;;11.97;68.67
34081;BME280;20358;50.272;19.026;2023-11-21T09:18:53;97639.78;;;12.11;68.25
34081;BME280;20358;50.272;19.026;2023-11-21T09:22:07;97641.25;;;12.15;67.37
34081;BME280;20358;50.272;19.026;2023-11-21T09:25:15;97642.22;;;12.26;66.98
34081;BME280;20358;50.272;19.026;2023-11-21T09:28:29;97640.84;;;12.21;66.10
34081;BME280;20358;50.272;19.026;2023-11-21T09:31:37;97639.59;;;12.26;66.30
34081;BME280;20358;50.272;19.026;2023-11-21T09:34:46;97643.03;;;12.27;65.45
34081;BME280;20358;50.272;19.026;2023-11-21T09:38:02;97639.59;;;12.26;65.68
34081;BME280;20358;50.272;19.026;2023-11-21T09:41:40;97637.94;;;12.38;66.30
34081;BME280;20358;50.272;19.026;2023-11-21T09:45:11;97636.16;;;12.51;65.85
34081;BME280;20358;50.272;19.026;2023-11-21T09:48:31;97637.94;;;12.63;65.34
34081;BME280;20358;50.272;19.026;2023-11-21T09:52:04;97634.69;;;12.60;65.26
34081;BME280;20358;50.272;19.026;2023-11-21T09:55:35;97633.63;;;12.62;64.96
34081;BME280;20358;50.272;19.026;2023-11-21T09:59:02;97627.88;;;12.57;64.22
34081;BME280;20358;50.272;19.026;2023-11-21T10:02:28;97640.34;;;12.66;64.74
34081;BME280;20358;50.272;19.026;2023-11-21T10:05:46;97642.75;;;12.69;64.34
34081;BME280;20358;50.272;19.026;2023-11-21T10:09:06;97625.47;;;12.54;64.22
34081;BME280;20358;50.272;19.026;2023-11-21T10:12:37;97639.28;;;12.56;63.73
34081;BME280;20358;50.272;19.026;2023-11-21T10:15:51;97636.47;;;12.47;63.67
34081;BME280;20358;50.272;19.026;2023-11-21T10:19:10;97639.41;;;12.42;63.85
34081;BME280;20358;50.272;19.026;2023-11-21T10:22:21;97625.88;;;12.48;64.26
34081;BME280;20358;50.272;19.026;2023-11-21T10:25:38;97630.19;;;12.49;64.10
34081;BME280;20358;50.272;19.026;2023-11-21T10:29:01;97632.38;;;12.42;64.01
34081;BME280;20358;50.272;19.026;2023-11-21T10:32:13;97631.84;;;12.37;64.15
34081;BME280;20358;50.272;19.026;2023-11-21T10:35:39;97640.97;;;12.32;64.35
34081;BME280;20358;50.272;19.026;2023-11-21T10:39:01;97643.09;;;11.88;63.52
34081;BME280;20358;50.272;19.026;2023-11-21T10:42:37;97647.38;;;11.89;63.97
34081;BME280;20358;50.272;19.026;2023-11-21T10:45:58;97639.50;;;11.89;64.19
34081;BME280;20358;50.272;19.026;2023-11-21T10:49:18;97652.25;;;11.80;62.76
34081;BME280;20358;50.272;19.026;2023-11-21T10:52:34;97663.69;;;11.79;62.48
34081;BME280;20358;50.272;19.026;2023-11-21T10:55:49;97648.91;;;11.78;62.52
34081;BME280;20358;50.272;19.026;2023-11-21T10:58:57;97649.75;;;11.79;61.93
34081;BME280;20358;50.272;19.026;2023-11-21T11:02:23;97650.78;;;11.76;61.73
34081;BME280;20358;50.272;19.026;2023-11-21T11:05:36;97644.28;;;11.69;61.87
34081;BME280;20358;50.272;19.026;2023-11-21T11:08:56;97641.59;;;11.83;62.24
34081;BME280;20358;50.272;19.026;2023-11-21T11:12:23;97643.00;;;12.02;62.19
34081;BME280;20358;50.272;19.026;2023-11-21T11:15:38;97650.06;;;12.14;62.07
34081;BME280;20358;50.272;19.026;2023-11-21T11:19:06;97650.47;;;12.08;61.42
34081;BME280;20358;50.272;19.026;2023-11-21T11:22:28;97650.81;;;12.16;61.63
34081;BME280;20358;50.272;19.026;2023-11-21T11:25:57;97636.03;;;12.27;61.45
34081;BME280;20358;50.272;19.026;2023-11-21T11:29:27;97641.72;;;12.34;61.42
34081;BME280;20358;50.272;19.026;2023-11-21T11:32:52;97641.00;;;12.44;61.87
34081;BME280;20358;50.272;19.026;2023-11-21T11:36:26;97645.69;;;12.52;61.56
34081;BME280;20358;50.272;19.026;2023-11-21T11:39:40;97652.00;;;12.50;61.50
34081;BME280;20358;50.272;19.026;2023-11-21T11:43:01;97647.69;;;12.61;61.69
34081;BME280;20358;50.272;19.026;2023-11-21T11:46:10;97641.50;;;12.75;61.38
34081;BME280;20358;50.272;19.026;2023-11-21T11:49:24;97645.28;;;12.83;60.71
34081;BME280;20358;50.272;19.026;2023-11-21T11:52:40;97644.75;;;12.91;60.55
34081;BME280;20358;50.272;19.026;2023-11-21T11:56:21;97639.47;;;13.03;60.74
34081;BME280;20358;50.272;19.026;2023-11-21T12:03:40;97648.59;;;12.98;59.49
34081;BME280;20358;50.272;19.026;2023-11-21T12:06:52;97657.47;;;13.10;60.10
34081;BME280;20358;50.272;19.026;2023-11-21T12:10:07;97652.41;;;13.07;59.34
34081;BME280;20358;50.272;19.026;2023-11-21T12:13:25;97657.72;;;13.05;59.14
34081;BME280;20358;50.272;19.026;2023-11-21T12:16:42;97662.91;;;13.07;59.34
34081;BME280;20358;50.272;19.026;2023-11-21T12:20:02;97657.75;;;12.92;59.59
34081;BME280;20358;50.272;19.026;2023-11-21T12:23:21;97657.97;;;12.77;60.25
34081;BME280;20358;50.272;19.026;2023-11-21T12:26:33;97651.47;;;12.82;60.97
34081;BME280;20358;50.272;19.026;2023-11-21T12:29:41;97649.56;;;12.84;61.08
34081;BME280;20358;50.272;19.026;2023-11-21T12:32:49;97647.38;;;12.78;60.90
34081;BME280;20358;50.272;19.026;2023-11-21T12:35:58;97647.47;;;12.64;60.72
34081;BME280;20358;50.272;19.026;2023-11-21T12:39:06;97658.50;;;12.57;61.66
34081;BME280;20358;50.272;19.026;2023-11-21T12:42:18;97656.19;;;12.52;61.80
34081;BME280;20358;50.272;19.026;2023-11-21T12:45:27;97654.91;;;12.45;62.19
34081;BME280;20358;50.272;19.026;2023-11-21T12:48:37;97652.53;;;12.42;62.36
34081;BME280;20358;50.272;19.026;2023-11-21T12:51:46;97656.59;;;12.46;62.31
34081;BME280;20358;50.272;19.026;2023-11-21T12:54:57;97660.38;;;12.42;62.55
34081;BME280;20358;50.272;19.026;2023-11-21T12:58:20;97667.72;;;12.37;63.01
34081;BME280;20358;50.272;19.026;2023-11-21T13:01:37;97676.28;;;12.26;63.54
34081;BME280;20358;50.272;19.026;2023-11-21T13:04:57;97675.84;;;12.20;64.62
34081;BME280;20358;50.272;19.026;2023-11-21T13:08:13;97676.03;;;12.17;64.64
34081;BME280;20358;50.272;19.026;2023-11-21T13:11:25;97673.31;;;12.06;65.11
34081;BME280;20358;50.272;19.026;2023-11-21T13:14:42;97683.09;;;11.90;66.18
34081;BME280;20358;50.272;19.026;2023-11-21T13:18:03;97679.09;;;11.84;66.57
34081;BME280;20358;50.272;19.026;2023-11-21T13:21:18;97678.06;;;11.87;67.06
34081;BME280;20358;50.272;19.026;2023-11-21T13:24:32;97679.44;;;11.92;67.14
34081;BME280;20358;50.272;19.026;2023-11-21T13:27:42;97685.72;;;11.90;67.01
34081;BME280;20358;50.272;19.026;2023-11-21T13:31:26;97681.22;;;11.92;67.30
34081;BME280;20358;50.272;19.026;2023-11-21T13:34:42;97683.34;;;11.99;66.77
34081;BME280;20358;50.272;19.026;2023-11-21T13:37:52;97683.16;;;12.02;66.71
34081;BME280;20358;50.272;19.026;2023-11-21T13:41:05;97682.09;;;12.05;66.55
34081;BME280;20358;50.272;19.026;2023-11-21T13:44:14;97685.19;;;12.11;66.31
34081;BME280;20358;50.272;19.026;2023-11-21T13:47:34;97686.31;;;12.20;66.61
34081;BME280;20358;50.272;19.026;2023-11-21T13:50:43;97685.94;;;12.26;65.75
34081;BME280;20358;50.272;19.026;2023-11-21T13:54:05;97693.28;;;12.33;66.19
34081;BME280;20358;50.272;19.026;2023-11-21T13:57:14;97687.41;;;12.42;66.21
34081;BME280;20358;50.272;19.026;2023-11-21T14:00:25;97689.63;;;12.49;65.69
34081;BME280;20358;50.272;19.026;2023-11-21T14:03:52;97689.97;;;12.57;65.44
34081;BME280;20358;50.272;19.026;2023-11-21T14:07:06;97697.50;;;12.61;65.06
34081;BME280;20358;50.272;19.026;2023-11-21T14:10:26;97695.59;;;12.63;65.26
34081;BME280;20358;50.272;19.026;2023-11-21T14:13:46;97700.03;;;12.63;65.03
34081;BME280;20358;50.272;19.026;2023-11-21T14:16:53;97696.44;;;12.51;64.63
34081;BME280;20358;50.272;19.026;2023-11-21T14:20:08;97689.53;;;12.50;64.76
34081;BME280;20358;50.272;19.026;2023-11-21T14:23:19;97695.00;;;12.47;64.83
34081;BME280;20358;50.272;19.026;2023-11-21T14:26:28;97702.53;;;12.39;64.90
34081;BME280;20358;50.272;19.026;2023-11-21T14:29:36;97708.28;;;12.31;64.98
34081;BME280;20358;50.272;19.026;2023-11-21T14:32:53;97711.09;;;12.28;64.94
34081;BME280;20358;50.272;19.026;2023-11-21T14:36:10;97712.13;;;12.26;65.29
34081;BME280;20358;50.272;19.026;2023-11-21T14:39:24;97704.66;;;12.20;65.47
34081;BME280;20358;50.272;19.026;2023-11-21T14:42:33;97601.69;;;11.53;65.87
34081;BME280;20358;50.272;19.026;2023-11-21T14:45:56;97718.19;;;12.14;66.55
34081;BME280;20358;50.272;19.026;2023-11-21T14:49:07;97718.91;;;12.03;66.85
34081;BME280;20358;50.272;19.026;2023-11-21T14:52:34;97718.78;;;12.05;67.23
34081;BME280;20358;50.272;19.026;2023-11-21T14:55:53;97713.16;;;12.11;67.06
34081;BME280;20358;50.272;19.026;2023-11-21T14:59:06;97726.25;;;12.11;67.25
34081;BME280;20358;50.272;19.026;2023-11-21T15:02:24;97724.56;;;12.10;67.26
34081;BME280;20358;50.272;19.026;2023-11-21T15:05:57;97723.63;;;12.11;66.99
34081;BME280;20358;50.272;19.026;2023-11-21T15:09:26;97727.72;;;12.15;67.45
34081;BME280;20358;50.272;19.026;2023-11-21T15:12:46;97731.19;;;12.15;66.99
34081;BME280;20358;50.272;19.026;2023-11-21T15:15:53;97732.75;;;12.18;66.95
34081;BME280;20358;50.272;19.026;2023-11-21T15:19:08;97737.06;;;12.19;67.17
34081;BME280;20358;50.272;19.026;2023-11-21T15:22:24;97738.34;;;12.26;66.99
34081;BME280;20358;50.272;19.026;2023-11-21T15:25:36;97732.91;;;12.29;66.97
34081;BME280;20358;50.272;19.026;2023-11-21T15:28:44;97734.19;;;12.36;66.89
34081;BME280;20358;50.272;19.026;2023-11-21T15:31:57;97735.25;;;12.46;66.74
34081;BME280;20358;50.272;19.026;2023-11-21T15:35:06;97740.94;;;12.53;66.45
34081;BME280;20358;50.272;19.026;2023-11-21T15:38:18;97736.50;;;12.53;65.95
34081;BME280;20358;50.272;19.026;2023-11-21T15:41:28;97741.34;;;12.59;66.18
34081;BME280;20358;50.272;19.026;2023-11-21T15:44:43;97743.84;;;12.61;65.69
34081;BME280;20358;50.272;19.026;2023-11-21T15:47:52;97747.03;;;12.66;65.85
34081;BME280;20358;50.272;19.026;2023-11-21T15:51:05;97752.56;;;12.61;66.05
34081;BME280;20358;50.272;19.026;2023-11-21T15:54:16;97755.38;;;12.58;65.70
34081;BME280;20358;50.272;19.026;2023-11-21T15:57:38;97762.53;;;12.56;66.22
34081;BME280;20358;50.272;19.026;2023-11-21T16:00:45;97758.97;;;12.57;66.28
34081;BME280;20358;50.272;19.026;2023-11-21T16:03:54;97766.84;;;12.57;66.21
34081;BME280;20358;50.272;19.026;2023-11-21T16:07:12;97771.13;;;12.58;66.44
34081;BME280;20358;50.272;19.026;2023-11-21T16:10:24;97779.00;;;12.58;66.46
34081;BME280;20358;50.272;19.026;2023-11-21T16:13:37;97784.84;;;12.49;65.76
34081;BME280;20358;50.272;19.026;2023-11-21T16:16:47;97790.28;;;12.46;65.89
34081;BME280;20358;50.272;19.026;2023-11-21T16:19:55;97796.69;;;12.42;65.94
34081;BME280;20358;50.272;19.026;2023-11-21T16:23:10;97797.09;;;12.36;66.31
34081;BME280;20358;50.272;19.026;2023-11-21T16:26:21;97795.38;;;12.35;66.41
34081;BME280;20358;50.272;19.026;2023-11-21T16:29:34;97809.25;;;12.37;66.32
34081;BME280;20358;50.272;19.026;2023-11-21T16:32:42;97807.56;;;12.36;66.48
34081;BME280;20358;50.272;19.026;2023-11-21T16:35:51;97807.94;;;12.30;66.21
34081;BME280;20358;50.272;19.026;2023-11-21T16:39:04;97814.50;;;12.37;66.60
34081;BME280;20358;50.272;19.026;2023-11-21T16:42:14;97820.63;;;12.23;65.70
34081;BME280;20358;50.272;19.026;2023-11-21T16:45:27;97823.75;;;12.02;65.94
34081;BME280;20358;50.272;19.026;2023-11-21T16:48:35;97833.13;;;11.92;65.80
34081;BME280;20358;50.272;19.026;2023-11-21T16:51:42;97842.88;;;11.75;65.32
34081;BME280;20358;50.272;19.026;2023-11-21T16:54:50;97855.22;;;11.59;64.34
34081;BME280;20358;50.272;19.026;2023-11-21T16:57:58;97859.22;;;11.37;64.71
34081;BME280;20358;50.272;19.026;2023-11-21T17:01:09;97869.50;;;10.96;65.17